createdAt,value
2019-03-16T00:02:06.501Z,97277.73
2019-03-16T00:04:36.027Z,97295.27
2019-03-16T00:07:06.015Z,97284.30
2019-03-16T00:09:36.785Z,97287.59
2019-03-16T00:12:06.942Z,97285.92
2019-03-16T00:14:38.018Z,97301.89
2019-03-16T00:17:08.979Z,97309.09
2019-03-16T00:19:39.887Z,97301.31
2019-03-16T00:22:09.126Z,97278.70
2019-03-16T00:24:38.783Z,97288.80
2019-03-16T00:27:09.195Z,97266.76
2019-03-16T00:29:38.454Z,97299.77
2019-03-16T00:32:13.322Z,97296.60
2019-03-16T00:34:38.656Z,97289.44
2019-03-16T00:37:09.555Z,97280.61
2019-03-16T00:39:40.749Z,97300.56
2019-03-16T00:42:10.667Z,97286.71
2019-03-16T00:44:40.194Z,97298.69
2019-03-16T00:47:24.618Z,97297.36
2019-03-16T00:49:53.869Z,97295.23
2019-03-16T00:52:23.811Z,97306.16
2019-03-16T00:54:55.383Z,97307.48
2019-03-16T00:57:24.851Z,97295.00
2019-03-16T00:59:56.651Z,97308.00
2019-03-16T01:02:27.550Z,97291.01
2019-03-16T01:04:57.214Z,97290.95
2019-03-16T01:07:26.458Z,97306.16
2019-03-16T01:09:55.704Z,97310.66
2019-03-16T01:12:27.193Z,97305.64
2019-03-16T01:14:56.451Z,97278.22
2019-03-16T01:17:25.878Z,97315.98
2019-03-16T01:19:55.958Z,97300.02
2019-03-16T01:22:25.167Z,97309.09
2019-03-16T01:24:56.866Z,97309.91
2019-03-16T01:27:26.649Z,97300.66
2019-03-16T01:29:56.458Z,97334.49
2019-03-16T01:32:40.023Z,97323.61
2019-03-16T01:35:04.036Z,97331.83
2019-03-16T01:37:35.354Z,97334.19
2019-03-16T01:40:06.020Z,97335.25
2019-03-16T01:42:35.065Z,97322.18
2019-03-16T01:45:06.164Z,97303.56
2019-03-16T01:47:35.648Z,97275.31
2019-03-16T01:50:13.900Z,97318.70
2019-03-16T01:52:54.494Z,97306.22
2019-03-16T01:55:31.054Z,97330.38
2019-03-16T01:58:03.500Z,97317.61
2019-03-16T02:00:32.731Z,97326.45
2019-03-16T02:03:09.602Z,97327.50
2019-03-16T02:05:39.258Z,97325.39
2019-03-16T02:08:10.052Z,97318.73
2019-03-16T02:10:40.578Z,97335.83
2019-03-16T02:13:10.993Z,97305.98
2019-03-16T02:15:40.973Z,97314.72
2019-03-16T02:18:10.943Z,97301.17
2019-03-16T02:20:42.258Z,97290.77
2019-03-16T02:23:11.460Z,97309.09
2019-03-16T02:25:40.713Z,97308.00
2019-03-16T02:28:10.838Z,97305.06
2019-03-16T02:30:42.364Z,97322.05
2019-03-16T02:33:13.795Z,97311.89
2019-03-16T02:35:46.807Z,97341.45
2019-03-16T02:38:17.015Z,97321.50
2019-03-16T02:40:48.954Z,97350.22
2019-03-16T02:43:20.166Z,97354.28
2019-03-16T02:45:52.452Z,97343.88
2019-03-16T02:48:21.681Z,97346.54
2019-03-16T02:50:51.230Z,97345.79
2019-03-16T02:53:20.881Z,97353.77
2019-03-16T02:55:51.235Z,97355.14
2019-03-16T02:58:22.736Z,97334.91
2019-03-16T03:00:54.254Z,97341.25
2019-03-16T03:03:29.739Z,97315.19
2019-03-16T03:06:00.404Z,97347.16
2019-03-16T03:08:29.616Z,97361.20
2019-03-16T03:10:59.920Z,97346.54
2019-03-16T03:13:34.243Z,97343.91
2019-03-16T03:16:05.401Z,97362.02
2019-03-16T03:18:35.184Z,97340.67
2019-03-16T03:21:05.863Z,97367.59
2019-03-16T03:23:35.105Z,97376.94
2019-03-16T03:26:07.805Z,97372.94
2019-03-16T03:28:37.429Z,97376.39
2019-03-16T03:31:07.107Z,97380.07
2019-03-16T03:33:57.962Z,97376.39
2019-03-16T03:36:12.139Z,97380.58
2019-03-16T03:38:47.883Z,97390.38
2019-03-16T03:41:17.150Z,97393.61
2019-03-16T03:43:46.650Z,97389.04
2019-03-16T03:46:15.891Z,97395.17
2019-03-16T03:48:46.444Z,97391.53
2019-03-16T03:51:16.080Z,97404.32
2019-03-16T03:53:47.562Z,97400.67
2019-03-16T03:56:17.078Z,97400.88
2019-03-16T03:58:47.016Z,97418.17
2019-03-16T04:01:20.711Z,97414.89
2019-03-16T04:03:50.035Z,97420.45
2019-03-16T04:06:21.735Z,97397.50
2019-03-16T04:08:50.957Z,97396.98
2019-03-16T04:11:20.182Z,97424.09
2019-03-16T04:13:50.334Z,97419.05
2019-03-16T04:16:20.260Z,97428.84
2019-03-16T04:18:52.079Z,97429.82
2019-03-16T04:21:21.632Z,97436.23
2019-03-16T04:23:50.967Z,97440.23
2019-03-16T04:26:20.807Z,97448.20
2019-03-16T04:28:52.145Z,97448.72
2019-03-16T04:31:21.401Z,97438.03
2019-03-16T04:33:50.659Z,97446.29
2019-03-16T04:36:20.685Z,97467.30
2019-03-16T04:38:51.988Z,97463.81
2019-03-16T04:41:21.271Z,97470.54
2019-03-16T04:43:50.877Z,97469.44
2019-03-16T04:46:22.183Z,97477.47
2019-03-16T04:48:51.406Z,97459.31
2019-03-16T04:51:22.021Z,97466.98
2019-03-16T04:53:51.527Z,97476.38
2019-03-16T04:56:21.647Z,97472.66
2019-03-16T04:58:53.832Z,97463.58
2019-03-16T05:01:23.098Z,97469.72
2019-03-16T05:03:55.587Z,97483.72
2019-03-16T05:06:24.821Z,97484.28
2019-03-16T05:08:54.065Z,97493.31
2019-03-16T05:11:23.544Z,97506.65
2019-03-16T05:13:54.970Z,97546.80
2019-03-16T05:16:24.208Z,97531.11
2019-03-16T05:18:53.429Z,97539.67
2019-03-16T05:21:23.098Z,97529.91
2019-03-16T05:23:54.262Z,97523.02
2019-03-16T05:26:23.501Z,97536.12
2019-03-16T05:28:53.970Z,97549.92
2019-03-16T05:31:24.593Z,97537.39
2019-03-16T05:33:55.258Z,97538.29
2019-03-16T05:36:24.888Z,97564.31
2019-03-16T05:38:54.103Z,97534.30
2019-03-16T05:41:24.571Z,97547.87
2019-03-16T05:43:54.580Z,97556.52
2019-03-16T05:46:24.189Z,97546.08
2019-03-16T05:48:53.437Z,97555.23
2019-03-16T05:51:22.756Z,97548.64
2019-03-16T05:53:53.314Z,97567.84
2019-03-16T05:56:23.740Z,97570.21
2019-03-16T05:58:53.315Z,97563.85
2019-03-16T06:01:24.120Z,97594.72
2019-03-16T06:03:53.449Z,97591.47
2019-03-16T06:06:27.401Z,97602.03
2019-03-16T06:08:56.836Z,97592.06
2019-03-16T06:11:30.107Z,97577.89
2019-03-16T06:13:59.321Z,97608.31
2019-03-16T06:16:28.571Z,97619.45
2019-03-16T06:18:59.017Z,97628.09
2019-03-16T06:21:30.139Z,97608.33
2019-03-16T06:23:59.397Z,97596.97
2019-03-16T06:26:29.774Z,97617.02
2019-03-16T06:28:59.335Z,97630.13
2019-03-16T06:31:29.896Z,97635.49
2019-03-16T06:33:59.167Z,97625.56
2019-03-16T06:36:28.389Z,97627.20
2019-03-16T06:39:00.346Z,97630.03
2019-03-16T06:41:31.130Z,97650.41
2019-03-16T06:44:02.817Z,97655.13
2019-03-16T06:46:32.045Z,97640.02
2019-03-16T06:49:03.067Z,97645.28
2019-03-16T06:51:32.321Z,97636.77
2019-03-16T06:54:01.861Z,97652.86
2019-03-16T06:56:34.843Z,97652.86
2019-03-16T06:59:04.548Z,97653.69
2019-03-16T07:01:33.837Z,97653.47
2019-03-16T07:04:04.087Z,97656.53
2019-03-16T07:06:35.452Z,97654.04
2019-03-16T07:09:07.296Z,97660.17
2019-03-16T07:11:36.543Z,97666.73
2019-03-16T07:14:06.124Z,97672.30
2019-03-16T07:16:36.098Z,97660.06
2019-03-16T07:19:05.341Z,97653.33
2019-03-16T07:21:35.109Z,97665.45
2019-03-16T07:24:04.662Z,97678.52
2019-03-16T07:26:34.017Z,97677.04
2019-03-16T07:29:04.655Z,97668.70
2019-03-16T07:31:37.767Z,97670.84
2019-03-16T07:34:10.604Z,97685.73
2019-03-16T07:36:39.879Z,97684.78
2019-03-16T07:39:14.265Z,97683.27
2019-03-16T07:41:43.492Z,97683.08
2019-03-16T07:44:12.688Z,97697.84
2019-03-16T07:46:42.214Z,97689.78
2019-03-16T07:49:11.777Z,97699.61
2019-03-16T07:51:41.019Z,97688.98
2019-03-16T07:54:10.298Z,97695.11
2019-03-16T07:56:39.763Z,97698.23
2019-03-16T07:59:08.998Z,97706.04
2019-03-16T08:01:38.275Z,97707.75
2019-03-16T08:04:07.782Z,97709.67
2019-03-16T08:06:37.057Z,97701.05
2019-03-16T08:09:07.699Z,97713.44
2019-03-16T08:11:55.698Z,97716.05
2019-03-16T08:14:26.199Z,97709.77
2019-03-16T08:16:57.892Z,97703.76
2019-03-16T08:19:27.142Z,97713.87
2019-03-16T08:21:57.649Z,97702.52
2019-03-16T08:24:29.085Z,97707.70
2019-03-16T08:26:59.996Z,97710.27
2019-03-16T08:29:31.201Z,97706.88
2019-03-16T08:32:11.144Z,97709.31
2019-03-16T08:34:43.516Z,97711.39
2019-03-16T08:37:14.197Z,97714.06
2019-03-16T08:39:43.724Z,97710.66
2019-03-16T08:42:15.383Z,97711.39
2019-03-16T08:44:44.938Z,97712.13
2019-03-16T08:47:14.192Z,97717.58
2019-03-16T08:49:44.223Z,97721.72
2019-03-16T08:52:16.841Z,97717.80
2019-03-16T08:54:46.111Z,97723.91
2019-03-16T08:57:15.347Z,97732.67
2019-03-16T08:59:44.950Z,97724.55
2019-03-16T09:02:18.878Z,97724.06
2019-03-16T09:04:50.943Z,97724.30
2019-03-16T09:07:22.603Z,97723.22
2019-03-16T09:09:52.144Z,97726.53
2019-03-16T09:12:21.396Z,97708.05
2019-03-16T09:14:50.972Z,97719.14
2019-03-16T09:17:20.775Z,97713.69
2019-03-16T09:19:50.286Z,97721.94
2019-03-16T09:22:19.552Z,97734.27
2019-03-16T09:24:50.003Z,97724.22
2019-03-16T09:27:30.573Z,97747.94
2019-03-16T09:29:54.654Z,97731.01
2019-03-16T09:32:24.558Z,97735.64
2019-03-16T09:34:54.261Z,97718.44
2019-03-16T09:37:24.983Z,97736.01
2019-03-16T09:39:54.992Z,97729.44
2019-03-16T09:42:24.482Z,97742.74
2019-03-16T09:44:55.949Z,97732.69
2019-03-16T09:47:25.194Z,97736.30
2019-03-16T09:49:54.432Z,97732.00
2019-03-16T09:52:23.703Z,97733.23
2019-03-16T09:54:54.172Z,97737.95
2019-03-16T09:57:24.216Z,97745.78
2019-03-16T09:59:55.976Z,97733.70
2019-03-16T10:02:27.741Z,97736.34
2019-03-16T10:04:57.185Z,97713.91
2019-03-16T10:07:27.337Z,97735.84
2019-03-16T10:09:56.553Z,97729.34
2019-03-16T10:12:28.900Z,97730.00
2019-03-16T10:14:59.230Z,97728.56
2019-03-16T10:17:29.462Z,97739.09
2019-03-16T10:19:58.713Z,97730.09
2019-03-16T10:22:30.049Z,97729.11
2019-03-16T10:24:59.286Z,97729.15
2019-03-16T10:27:29.811Z,97714.84
2019-03-16T10:29:59.379Z,97737.02
2019-03-16T10:32:29.384Z,97724.55
2019-03-16T10:34:59.924Z,97735.41
2019-03-16T10:37:29.314Z,97737.56
2019-03-16T10:39:58.901Z,97743.83
2019-03-16T10:42:29.118Z,97744.58
2019-03-16T10:44:59.535Z,97760.40
2019-03-16T10:47:31.692Z,97760.77
2019-03-16T10:50:03.458Z,97750.27
2019-03-16T10:52:37.005Z,97745.02
2019-03-16T10:55:06.970Z,97749.08
2019-03-16T10:57:36.514Z,97765.67
2019-03-16T11:00:08.640Z,97746.07
2019-03-16T11:02:39.906Z,97757.53
2019-03-16T11:05:09.134Z,97749.70
2019-03-16T11:07:38.667Z,97743.50
2019-03-16T11:10:12.061Z,97764.34
2019-03-16T11:12:43.939Z,97759.41
2019-03-16T11:15:13.154Z,97777.72
2019-03-16T11:17:42.959Z,97762.80
2019-03-16T11:20:12.828Z,97765.95
2019-03-16T11:22:42.199Z,97772.38
2019-03-16T11:25:12.642Z,97770.05
2019-03-16T11:27:43.669Z,97762.05
2019-03-16T11:30:14.236Z,97757.30
2019-03-16T11:32:44.807Z,97757.64
2019-03-16T11:35:17.371Z,97766.84
2019-03-16T11:37:46.627Z,97755.79
2019-03-16T11:40:21.526Z,97752.06
2019-03-16T11:42:51.034Z,97756.48
2019-03-16T11:45:20.527Z,97765.88
2019-03-16T11:47:49.841Z,97759.03
2019-03-16T11:50:19.386Z,97754.80
2019-03-16T11:52:56.904Z,97755.58
2019-03-16T11:55:26.136Z,97746.00
2019-03-16T11:57:56.309Z,97743.20
2019-03-16T12:00:27.580Z,97739.03
2019-03-16T12:02:56.935Z,97741.70
2019-03-16T12:05:26.814Z,97726.64
2019-03-16T12:07:56.900Z,97729.51
2019-03-16T12:10:26.344Z,97733.99
2019-03-16T12:12:56.995Z,97724.00
2019-03-16T12:15:27.089Z,97722.19
2019-03-16T12:17:58.875Z,97717.30
2019-03-16T12:20:28.493Z,97714.02
2019-03-16T12:22:58.884Z,97706.59
2019-03-16T12:25:31.793Z,97727.13
2019-03-16T12:28:01.046Z,97711.95
2019-03-16T12:30:30.853Z,97686.74
2019-03-16T12:33:02.334Z,97712.71
2019-03-16T12:35:31.541Z,97708.03
2019-03-16T12:38:03.236Z,97699.23
2019-03-16T12:40:34.753Z,97684.08
2019-03-16T12:43:04.645Z,97700.73
2019-03-16T12:45:33.851Z,97688.64
2019-03-16T12:48:04.217Z,97699.10
2019-03-16T12:50:33.440Z,97705.16
2019-03-16T12:53:04.563Z,97698.85
2019-03-16T12:55:35.111Z,97692.20
2019-03-16T12:58:07.696Z,97700.34
2019-03-16T13:00:37.194Z,97690.30
2019-03-16T13:03:07.757Z,97684.87
2019-03-16T13:05:40.646Z,97679.97
2019-03-16T13:08:11.643Z,97674.08
2019-03-16T13:10:44.583Z,97679.61
2019-03-16T13:13:15.125Z,97675.41
2019-03-16T13:15:44.642Z,97670.49
2019-03-16T13:18:16.603Z,97668.01
2019-03-16T13:20:50.392Z,97681.63
2019-03-16T13:23:19.702Z,97675.27
2019-03-16T13:25:49.958Z,97675.59
2019-03-16T13:28:19.539Z,97672.73
2019-03-16T13:30:49.560Z,97661.27
2019-03-16T13:33:24.170Z,97661.58
2019-03-16T13:35:53.378Z,97648.80
2019-03-16T13:38:23.442Z,97660.80
2019-03-16T13:40:56.050Z,97642.88
2019-03-16T13:43:28.091Z,97649.95
2019-03-16T13:45:59.427Z,97647.50
2019-03-16T13:48:29.806Z,97626.62
2019-03-16T13:51:07.252Z,97639.64
2019-03-16T13:53:37.519Z,97647.88
2019-03-16T13:56:07.208Z,97640.88
2019-03-16T13:58:36.467Z,97639.45
2019-03-16T14:01:05.686Z,97640.73
2019-03-16T14:03:37.492Z,97634.44
2019-03-16T14:06:07.328Z,97644.06
2019-03-16T14:08:36.640Z,97639.22
2019-03-16T14:11:08.091Z,97643.23
2019-03-16T14:13:37.414Z,97631.98
2019-03-16T14:16:07.250Z,97633.16
2019-03-16T14:18:36.941Z,97631.95
2019-03-16T14:21:06.290Z,97610.19
2019-03-16T14:23:36.697Z,97628.28
2019-03-16T14:26:09.713Z,97627.56
2019-03-16T14:28:39.028Z,97604.89
2019-03-16T14:31:09.344Z,97604.89
2019-03-16T14:33:41.396Z,97610.55
2019-03-16T14:36:10.711Z,97604.61
2019-03-16T14:38:40.827Z,97595.13
2019-03-16T14:41:09.901Z,97591.61
2019-03-16T14:43:40.150Z,97586.67
2019-03-16T14:46:12.217Z,97590.39
2019-03-16T14:48:41.788Z,97601.08
2019-03-16T14:51:11.124Z,97595.70
2019-03-16T14:53:48.505Z,97593.94
2019-03-16T14:56:17.733Z,97580.91
2019-03-16T14:58:46.980Z,97594.44
2019-03-16T15:01:24.143Z,97588.86
2019-03-16T15:03:54.785Z,97586.07
2019-03-16T15:06:24.061Z,97580.09
2019-03-16T15:08:56.792Z,97576.98
2019-03-16T15:11:27.288Z,97581.55
2019-03-16T15:14:02.705Z,97567.73
2019-03-16T15:16:34.804Z,97570.41
2019-03-16T15:19:13.125Z,97571.64
2019-03-16T15:21:43.824Z,97568.44
2019-03-16T15:24:14.385Z,97574.12
2019-03-16T15:26:44.245Z,97568.43
2019-03-16T15:29:14.276Z,97566.36
2019-03-16T15:31:43.740Z,97567.89
2019-03-16T15:34:13.944Z,97575.54
2019-03-16T15:36:43.862Z,97578.98
2019-03-16T15:39:16.080Z,97561.24
2019-03-16T15:41:47.900Z,97573.69
2019-03-16T15:44:20.139Z,97563.50
2019-03-16T15:46:50.186Z,97548.21
2019-03-16T15:49:22.495Z,97552.75
2019-03-16T15:51:51.740Z,97566.36
2019-03-16T15:54:25.793Z,97549.09
2019-03-16T15:56:57.923Z,97556.00
2019-03-16T15:59:28.569Z,97552.70
2019-03-16T16:01:57.800Z,97557.51
2019-03-16T16:04:28.700Z,97542.01
2019-03-16T16:06:59.591Z,97550.28
2019-03-16T16:09:31.465Z,97548.86
2019-03-16T16:12:01.223Z,97545.37
2019-03-16T16:14:30.490Z,97533.06
2019-03-16T16:16:59.729Z,97545.56
2019-03-16T16:19:29.327Z,97555.98
2019-03-16T16:22:03.246Z,97550.33
2019-03-16T16:24:32.648Z,97546.09
2019-03-16T16:27:02.100Z,97542.13
2019-03-16T16:29:33.914Z,97549.25
2019-03-16T16:32:06.817Z,97547.23
2019-03-16T16:34:40.261Z,97543.47
2019-03-16T16:37:11.232Z,97544.54
2019-03-16T16:39:41.427Z,97548.08
2019-03-16T16:42:12.267Z,97548.17
2019-03-16T16:44:44.151Z,97547.66
2019-03-16T16:47:14.687Z,97536.44
2019-03-16T16:49:46.666Z,97534.09
2019-03-16T16:52:19.545Z,97527.84
2019-03-16T16:54:51.652Z,97529.92
2019-03-16T16:57:25.393Z,97528.23
2019-03-16T16:59:58.401Z,97532.55
2019-03-16T17:02:28.324Z,97529.30
2019-03-16T17:04:59.314Z,97517.83
2019-03-16T17:07:31.059Z,97513.08
2019-03-16T17:10:00.591Z,97515.72
2019-03-16T17:12:37.993Z,97516.45
2019-03-16T17:18:36.686Z,97517.92
2019-03-16T17:21:06.268Z,97515.31
2019-03-16T17:23:35.647Z,97514.08
2019-03-16T17:26:05.146Z,97513.97
2019-03-16T17:28:34.509Z,97516.02
2019-03-16T17:31:06.856Z,97505.16
2019-03-16T17:33:36.090Z,97508.84
2019-03-16T17:36:05.484Z,97508.93
2019-03-16T17:38:34.771Z,97503.71
2019-03-16T17:41:04.584Z,97495.83
2019-03-16T17:43:33.874Z,97500.66
2019-03-16T17:46:03.685Z,97494.63
2019-03-16T17:48:33.123Z,97490.03
2019-03-16T17:51:02.593Z,97487.25
2019-03-16T17:53:32.160Z,97486.00
2019-03-16T17:56:02.222Z,97485.59
2019-03-16T17:58:31.942Z,97478.78
2019-03-16T18:01:01.504Z,97479.72
2019-03-16T18:03:30.845Z,97476.65
2019-03-16T18:06:00.274Z,97469.58
2019-03-16T18:08:30.639Z,97472.92
2019-03-16T18:10:59.972Z,97466.64
2019-03-16T18:13:29.354Z,97462.03
2019-03-16T18:16:01.661Z,97456.99
2019-03-16T18:18:31.497Z,97458.31
2019-03-16T18:21:00.893Z,97460.64
2019-03-16T18:23:30.193Z,97454.49
2019-03-16T18:26:00.110Z,97462.77
2019-03-16T18:28:29.625Z,97459.41
2019-03-16T18:30:59.067Z,97459.95
2019-03-16T18:33:29.532Z,97456.95
2019-03-16T18:35:59.919Z,97462.67
2019-03-16T18:38:29.256Z,97453.45
2019-03-16T18:40:58.970Z,97462.02
2019-03-16T18:43:29.466Z,97456.70
2019-03-16T18:45:59.120Z,97453.41
2019-03-16T18:48:30.403Z,97457.58
2019-03-16T18:50:59.544Z,97457.75
2019-03-16T18:53:30.263Z,97465.73
2019-03-16T18:55:59.541Z,97461.16
2019-03-16T18:58:37.279Z,97466.95
2019-03-16T19:01:00.970Z,97469.95
2019-03-16T19:03:31.224Z,97469.18
2019-03-16T19:06:00.475Z,97471.41
2019-03-16T19:08:29.700Z,97469.96
2019-03-16T19:10:58.948Z,97475.55
2019-03-16T19:13:28.173Z,97468.50
2019-03-16T19:15:59.179Z,97476.03
2019-03-16T19:18:28.441Z,97476.02
2019-03-16T19:20:57.797Z,97479.28
2019-03-16T19:23:27.012Z,97483.91
2019-03-16T19:25:58.457Z,97477.80
2019-03-16T19:28:27.687Z,97469.75
2019-03-16T19:30:57.023Z,97466.51
2019-03-16T19:33:26.245Z,97468.80
2019-03-16T19:35:55.498Z,97472.81
2019-03-16T19:38:25.530Z,97476.97
2019-03-16T19:40:55.134Z,97464.66
2019-03-16T19:43:24.378Z,97471.95
2019-03-16T19:45:53.662Z,97477.95
2019-03-16T19:48:22.882Z,97474.65
2019-03-16T19:50:52.159Z,97469.17
2019-03-16T19:53:21.391Z,97473.16
2019-03-16T19:55:50.699Z,97467.77
2019-03-16T19:58:20.029Z,97474.62
2019-03-16T20:00:49.298Z,97470.78
2019-03-16T20:03:18.803Z,97460.85
2019-03-16T20:05:48.265Z,97457.91
2019-03-16T20:08:17.497Z,97491.51
2019-03-16T20:10:46.760Z,97456.70
2019-03-16T20:13:16.744Z,97457.39
2019-03-16T20:15:45.996Z,97457.52
2019-03-16T20:18:15.234Z,97443.98
2019-03-16T20:20:44.489Z,97456.14
2019-03-16T20:23:14.804Z,97448.82
2019-03-16T20:25:44.075Z,97450.61
2019-03-16T20:28:13.329Z,97456.72
2019-03-16T20:30:42.572Z,97460.10
2019-03-16T20:33:11.845Z,97459.50
2019-03-16T20:35:41.885Z,97461.91
2019-03-16T20:38:11.110Z,97447.53
2019-03-16T20:40:40.351Z,97458.29
2019-03-16T20:43:10.485Z,97454.16
2019-03-16T20:45:39.799Z,97464.98
2019-03-16T20:48:08.626Z,97461.01
2019-03-16T20:50:38.487Z,97459.17
2019-03-16T20:53:07.750Z,97456.81
2019-03-16T20:55:37.133Z,97469.47
2019-03-16T20:58:08.690Z,97468.11
2019-03-16T21:00:37.932Z,97467.23
2019-03-16T21:03:15.846Z,97464.33
2019-03-16T21:05:38.218Z,97471.55
2019-03-16T21:08:07.447Z,97469.12
2019-03-16T21:10:36.670Z,97469.41
2019-03-16T21:13:07.357Z,97473.06
2019-03-16T21:15:37.174Z,97484.21
2019-03-16T21:18:07.966Z,97458.19
2019-03-16T21:20:38.421Z,97467.23
2019-03-16T21:23:07.696Z,97460.55
2019-03-16T21:25:38.177Z,97460.77
2019-03-16T21:28:07.424Z,97451.11
2019-03-16T21:30:36.683Z,97452.44
2019-03-16T21:33:05.974Z,97460.50
2019-03-16T21:35:35.558Z,97465.30
2019-03-16T21:38:04.819Z,97429.59
2019-03-16T21:40:34.119Z,97430.38
2019-03-16T21:43:03.407Z,97449.26
2019-03-16T21:45:32.660Z,97455.86
2019-03-16T21:48:01.938Z,97440.09
2019-03-16T21:50:31.454Z,97431.66
2019-03-16T21:53:00.717Z,97438.06
2019-03-16T21:55:30.761Z,97441.09
2019-03-16T21:58:03.482Z,97437.88
2019-03-16T22:00:32.936Z,97436.95
2019-03-16T22:03:02.197Z,97437.61
2019-03-16T22:05:31.447Z,97416.59
2019-03-16T22:08:00.698Z,97413.12
2019-03-16T22:10:30.802Z,97427.23
2019-03-16T22:13:00.282Z,97419.16
2019-03-16T22:15:29.508Z,97421.19
2019-03-16T22:17:59.779Z,97423.23
2019-03-16T22:20:29.008Z,97419.27
2019-03-16T22:22:58.262Z,97414.72
2019-03-16T22:25:28.216Z,97417.87
2019-03-16T22:27:57.741Z,97424.05
2019-03-16T22:30:28.242Z,97425.80
2019-03-16T22:32:57.297Z,97422.45
2019-03-16T22:35:26.514Z,97421.23
2019-03-16T22:37:57.762Z,97415.08
2019-03-16T22:40:27.575Z,97416.91
2019-03-16T22:42:58.371Z,97416.01
2019-03-16T22:45:27.956Z,97416.52
2019-03-16T22:47:57.289Z,97420.27
2019-03-16T22:50:26.573Z,97424.25
2019-03-16T22:52:56.525Z,97414.84
2019-03-16T22:55:26.098Z,97410.88
2019-03-16T22:57:55.446Z,97416.03
2019-03-16T23:00:28.845Z,97404.09
2019-03-16T23:02:58.145Z,97410.56
2019-03-16T23:05:28.183Z,97406.31
2019-03-16T23:07:57.459Z,97395.63
2019-03-16T23:10:26.735Z,97395.23
2019-03-16T23:12:58.242Z,97394.20
2019-03-16T23:15:27.639Z,97394.13
2019-03-16T23:17:58.673Z,97394.13
2019-03-16T23:20:28.242Z,97383.77
2019-03-16T23:22:57.871Z,97394.33
2019-03-16T23:25:27.414Z,97385.98
2019-03-16T23:27:57.168Z,97391.61
2019-03-16T23:30:28.536Z,97382.48
2019-03-16T23:32:58.025Z,97386.74
2019-03-16T23:35:27.821Z,97374.14
2019-03-16T23:37:57.074Z,97378.10
2019-03-16T23:40:26.298Z,97387.25
2019-03-16T23:42:56.985Z,97388.25
2019-03-16T23:45:27.072Z,97382.48
2019-03-16T23:47:56.335Z,97381.17
2019-03-16T23:50:25.600Z,97379.45
2019-03-16T23:52:55.627Z,97384.94
2019-03-16T23:55:25.184Z,97378.45
2019-03-16T23:57:56.331Z,97369.20
